sensor_id;sensor_type;location;lat;lon;timestamp;pressure;altitude;pressure_sealevel;temperature;humidity
50790;BME280;37287;47.554;7.844;2022-11-15T00:00:55;97689.75;;;8.81;100.00
50790;BME280;37287;47.554;7.844;2022-11-15T00:03:24;97689.31;;;8.79;100.00
50790;BME280;37287;47.554;7.844;2022-11-15T00:05:52;97691.63;;;8.77;100.00
50790;BME280;37287;47.554;7.844;2022-11-15T00:08:18;97691.56;;;8.73;100.00
50790;BME280;37287;47.554;7.844;2022-11-15T00:10:57;97687.66;;;8.71;100.00
50790;BME280;37287;47.554;7.844;2022-11-15T00:13:25;97698.44;;;8.67;100.00
50790;BME280;37287;47.554;7.844;2022-11-15T00:15:52;97686.06;;;8.63;100.00
50790;BME280;37287;47.554;7.844;2022-11-15T00:18:18;97685.16;;;8.55;100.00
50790;BME280;37287;47.554;7.844;2022-11-15T00:20:45;97683.22;;;8.52;100.00
50790;BME280;37287;47.554;7.844;2022-11-15T00:23:13;97684.31;;;8.47;100.00
50790;BME280;37287;47.554;7.844;2022-11-15T00:25:40;97679.28;;;8.46;100.00
50790;BME280;37287;47.554;7.844;2022-11-15T00:28:07;97677.34;;;8.46;100.00
50790;BME280;37287;47.554;7.844;2022-11-15T00:30:35;97659.56;;;8.41;100.00
50790;BME280;37287;47.554;7.844;2022-11-15T00:33:03;97660.63;;;8.37;100.00
50790;BME280;37287;47.554;7.844;2022-11-15T00:35:34;97657.84;;;8.30;100.00
50790;BME280;37287;47.554;7.844;2022-11-15T00:38:02;97650.78;;;8.21;100.00
50790;BME280;37287;47.554;7.844;2022-11-15T00:40:29;97659.22;;;8.16;100.00
50790;BME280;37287;47.554;7.844;2022-11-15T00:42:56;97649.09;;;8.09;100.00
50790;BME280;37287;47.554;7.844;2022-11-15T00:45:24;97643.22;;;8.00;100.00
50790;BME280;37287;47.554;7.844;2022-11-15T00:47:52;97640.00;;;7.91;100.00
50790;BME280;37287;47.554;7.844;2022-11-15T00:50:19;97639.25;;;7.94;100.00
50790;BME280;37287;47.554;7.844;2022-11-15T00:52:47;97628.91;;;7.96;100.00
50790;BME280;37287;47.554;7.844;2022-11-15T00:55:15;97633.88;;;7.94;100.00
50790;BME280;37287;47.554;7.844;2022-11-15T00:57:43;97640.38;;;7.93;100.00
50790;BME280;37287;47.554;7.844;2022-11-15T01:00:12;97648.59;;;8.00;100.00
50790;BME280;37287;47.554;7.844;2022-11-15T01:02:38;97637.03;;;8.00;100.00
50790;BME280;37287;47.554;7.844;2022-11-15T01:05:07;97644.72;;;7.98;100.00
50790;BME280;37287;47.554;7.844;2022-11-15T01:07:38;97643.16;;;7.97;100.00
50790;BME280;37287;47.554;7.844;2022-11-15T01:10:05;97628.91;;;7.96;100.00
50790;BME280;37287;47.554;7.844;2022-11-15T01:12:32;97627.75;;;7.97;100.00
50790;BME280;37287;47.554;7.844;2022-11-15T01:15:04;97641.22;;;7.97;100.00
50790;BME280;37287;47.554;7.844;2022-11-15T01:17:31;97635.13;;;8.00;100.00
50790;BME280;37287;47.554;7.844;2022-11-15T01:19:57;97620.53;;;8.05;100.00
50790;BME280;37287;47.554;7.844;2022-11-15T01:22:24;97627.59;;;8.13;100.00
50790;BME280;37287;47.554;7.844;2022-11-15T01:24:51;97633.44;;;8.19;100.00
50790;BME280;37287;47.554;7.844;2022-11-15T01:27:17;97621.09;;;8.18;100.00
50790;BME280;37287;47.554;7.844;2022-11-15T01:29:44;97626.50;;;8.18;100.00
50790;BME280;37287;47.554;7.844;2022-11-15T01:32:10;97625.72;;;8.17;100.00
50790;BME280;37287;47.554;7.844;2022-11-15T01:34:37;97620.28;;;8.14;100.00
50790;BME280;37287;47.554;7.844;2022-11-15T01:37:05;97615.97;;;8.09;100.00
50790;BME280;37287;47.554;7.844;2022-11-15T01:39:32;97619.66;;;7.97;100.00
50790;BME280;37287;47.554;7.844;2022-11-15T01:41:58;97609.88;;;7.85;100.00
50790;BME280;37287;47.554;7.844;2022-11-15T01:44:43;97605.59;;;7.81;100.00
50790;BME280;37287;47.554;7.844;2022-11-15T01:47:15;97595.94;;;7.80;100.00
50790;BME280;37287;47.554;7.844;2022-11-15T01:49:49;97600.19;;;7.81;100.00
50790;BME280;37287;47.554;7.844;2022-11-15T01:52:19;97597.16;;;7.86;100.00
50790;BME280;37287;47.554;7.844;2022-11-15T01:54:49;97601.84;;;7.89;100.00
50790;BME280;37287;47.554;7.844;2022-11-15T01:57:16;97601.53;;;7.94;100.00
50790;BME280;37287;47.554;7.844;2022-11-15T01:59:44;97599.34;;;8.03;100.00
50790;BME280;37287;47.554;7.844;2022-11-15T02:02:13;97613.75;;;8.15;100.00
50790;BME280;37287;47.554;7.844;2022-11-15T02:04:45;97606.88;;;8.21;100.00
50790;BME280;37287;47.554;7.844;2022-11-15T02:07:16;97606.06;;;8.17;100.00
50790;BME280;37287;47.554;7.844;2022-11-15T02:09:45;97599.91;;;8.20;100.00
50790;BME280;37287;47.554;7.844;2022-11-15T02:12:16;97605.38;;;8.23;100.00
50790;BME280;37287;47.554;7.844;2022-11-15T02:14:48;97608.84;;;8.24;100.00
50790;BME280;37287;47.554;7.844;2022-11-15T02:20:46;97586.91;;;8.25;100.00
50790;BME280;37287;47.554;7.844;2022-11-15T02:29:32;97594.63;;;8.27;100.00
50790;BME280;37287;47.554;7.844;2022-11-15T02:32:13;97580.78;;;8.29;100.00
50790;BME280;37287;47.554;7.844;2022-11-15T02:39:51;97576.75;;;8.15;100.00
50790;BME280;37287;47.554;7.844;2022-11-15T02:42:26;97567.81;;;8.07;100.00
50790;BME280;37287;47.554;7.844;2022-11-15T02:45:17;97575.03;;;8.00;100.00
50790;BME280;37287;47.554;7.844;2022-11-15T02:47:56;97566.47;;;7.94;100.00
50790;BME280;37287;47.554;7.844;2022-11-15T02:50:27;97564.91;;;7.93;100.00
50790;BME280;37287;47.554;7.844;2022-11-15T02:52:55;97561.06;;;7.90;100.00
50790;BME280;37287;47.554;7.844;2022-11-15T02:55:30;97562.94;;;7.90;100.00
50790;BME280;37287;47.554;7.844;2022-11-15T02:58:28;97555.66;;;7.90;100.00
50790;BME280;37287;47.554;7.844;2022-11-15T03:01:26;97548.34;;;7.91;100.00
50790;BME280;37287;47.554;7.844;2022-11-15T03:07:17;97550.63;;;7.89;100.00
50790;BME280;37287;47.554;7.844;2022-11-15T03:09:52;97535.59;;;7.88;100.00
50790;BME280;37287;47.554;7.844;2022-11-15T03:12:30;97544.09;;;7.90;100.00
50790;BME280;37287;47.554;7.844;2022-11-15T03:15:21;97544.47;;;7.88;100.00
50790;BME280;37287;47.554;7.844;2022-11-15T03:18:00;97552.91;;;7.87;100.00
50790;BME280;37287;47.554;7.844;2022-11-15T03:20:30;97544.44;;;7.85;100.00
50790;BME280;37287;47.554;7.844;2022-11-15T03:23:10;97546.31;;;7.84;100.00
50790;BME280;37287;47.554;7.844;2022-11-15T03:25:41;97540.16;;;7.84;100.00
50790;BME280;37287;47.554;7.844;2022-11-15T03:28:16;97539.41;;;7.83;100.00
50790;BME280;37287;47.554;7.844;2022-11-15T03:30:47;97540.91;;;7.81;100.00
50790;BME280;37287;47.554;7.844;2022-11-15T03:33:21;97553.19;;;7.78;100.00
50790;BME280;37287;47.554;7.844;2022-11-15T03:35:50;97549.28;;;7.75;100.00
50790;BME280;37287;47.554;7.844;2022-11-15T03:38:24;97537.69;;;7.71;100.00
50790;BME280;37287;47.554;7.844;2022-11-15T03:40:59;97541.50;;;7.70;100.00
50790;BME280;37287;47.554;7.844;2022-11-15T03:43:41;97552.28;;;7.70;100.00
50790;BME280;37287;47.554;7.844;2022-11-15T03:46:20;97541.19;;;7.72;100.00
50790;BME280;37287;47.554;7.844;2022-11-15T03:48:54;97544.63;;;7.72;100.00
50790;BME280;37287;47.554;7.844;2022-11-15T03:51:27;97536.56;;;7.72;100.00
50790;BME280;37287;47.554;7.844;2022-11-15T03:53:56;97527.28;;;7.70;100.00
50790;BME280;37287;47.554;7.844;2022-11-15T03:56:23;97526.91;;;7.71;100.00
50790;BME280;37287;47.554;7.844;2022-11-15T03:58:51;97528.47;;;7.72;100.00
50790;BME280;37287;47.554;7.844;2022-11-15T04:01:18;97524.66;;;7.73;100.00
50790;BME280;37287;47.554;7.844;2022-11-15T04:03:44;97519.66;;;7.75;100.00
50790;BME280;37287;47.554;7.844;2022-11-15T04:06:11;97516.19;;;7.75;100.00
50790;BME280;37287;47.554;7.844;2022-11-15T04:08:37;97522.34;;;7.75;100.00
50790;BME280;37287;47.554;7.844;2022-11-15T04:11:04;97523.09;;;7.72;100.00
50790;BME280;37287;47.554;7.844;2022-11-15T04:13:31;97509.59;;;7.72;100.00
50790;BME280;37287;47.554;7.844;2022-11-15T04:15:58;97511.47;;;7.68;100.00
50790;BME280;37287;47.554;7.844;2022-11-15T04:18:25;97517.63;;;7.69;100.00
50790;BME280;37287;47.554;7.844;2022-11-15T04:20:53;97509.53;;;7.69;100.00
50790;BME280;37287;47.554;7.844;2022-11-15T04:23:38;97502.25;;;7.69;100.00
50790;BME280;37287;47.554;7.844;2022-11-15T04:26:35;97498.41;;;7.70;100.00
50790;BME280;37287;47.554;7.844;2022-11-15T04:29:02;97500.38;;;7.73;100.00
50790;BME280;37287;47.554;7.844;2022-11-15T04:31:47;97496.16;;;7.76;100.00
50790;BME280;37287;47.554;7.844;2022-11-15T04:34:15;97496.97;;;7.77;100.00
50790;BME280;37287;47.554;7.844;2022-11-15T04:36:42;97490.06;;;7.79;100.00
50790;BME280;37287;47.554;7.844;2022-11-15T04:39:29;97495.81;;;7.78;100.00
50790;BME280;37287;47.554;7.844;2022-11-15T04:41:56;97492.34;;;7.77;100.00
50790;BME280;37287;47.554;7.844;2022-11-15T04:44:22;97486.13;;;7.73;100.00
50790;BME280;37287;47.554;7.844;2022-11-15T04:46:49;97492.25;;;7.70;100.00
50790;BME280;37287;47.554;7.844;2022-11-15T04:49:15;97495.38;;;7.72;100.00
50790;BME280;37287;47.554;7.844;2022-11-15T04:51:43;97488.41;;;7.71;100.00
50790;BME280;37287;47.554;7.844;2022-11-15T04:54:19;97476.09;;;7.70;100.00
50790;BME280;37287;47.554;7.844;2022-11-15T04:56:45;97484.94;;;7.70;100.00
50790;BME280;37287;47.554;7.844;2022-11-15T04:59:12;97482.25;;;7.70;100.00
50790;BME280;37287;47.554;7.844;2022-11-15T05:01:39;97481.06;;;7.68;100.00
50790;BME280;37287;47.554;7.844;2022-11-15T05:04:10;97484.13;;;7.66;100.00
50790;BME280;37287;47.554;7.844;2022-11-15T05:06:47;97472.19;;;7.67;100.00
50790;BME280;37287;47.554;7.844;2022-11-15T05:09:14;97478.63;;;7.59;100.00
50790;BME280;37287;47.554;7.844;2022-11-15T05:11:41;97467.44;;;7.57;100.00
50790;BME280;37287;47.554;7.844;2022-11-15T05:14:09;97474.34;;;7.54;100.00
50790;BME280;37287;47.554;7.844;2022-11-15T05:16:36;97468.19;;;7.54;100.00
50790;BME280;37287;47.554;7.844;2022-11-15T05:19:04;97475.53;;;7.57;100.00
50790;BME280;37287;47.554;7.844;2022-11-15T05:21:33;97467.44;;;7.57;100.00
50790;BME280;37287;47.554;7.844;2022-11-15T05:24:00;97462.06;;;7.57;100.00
50790;BME280;37287;47.554;7.844;2022-11-15T05:26:28;97470.47;;;7.52;100.00
50790;BME280;37287;47.554;7.844;2022-11-15T05:28:58;97468.78;;;7.40;100.00
50790;BME280;37287;47.554;7.844;2022-11-15T05:31:26;97468.25;;;7.31;100.00
50790;BME280;37287;47.554;7.844;2022-11-15T05:33:54;97482.81;;;7.26;100.00
50790;BME280;37287;47.554;7.844;2022-11-15T05:36:36;97473.13;;;7.21;100.00
50790;BME280;37287;47.554;7.844;2022-11-15T05:39:06;97468.84;;;7.17;100.00
50790;BME280;37287;47.554;7.844;2022-11-15T05:41:56;97472.97;;;7.11;100.00
50790;BME280;37287;47.554;7.844;2022-11-15T05:44:30;97459.84;;;7.05;100.00
50790;BME280;37287;47.554;7.844;2022-11-15T05:46:58;97464.38;;;7.01;100.00
50790;BME280;37287;47.554;7.844;2022-11-15T05:49:27;97468.22;;;7.00;100.00
50790;BME280;37287;47.554;7.844;2022-11-15T05:51:56;97463.19;;;6.99;100.00
50790;BME280;37287;47.554;7.844;2022-11-15T05:54:25;97458.94;;;6.98;100.00
50790;BME280;37287;47.554;7.844;2022-11-15T05:56:54;97456.59;;;6.96;100.00
50790;BME280;37287;47.554;7.844;2022-11-15T05:59:24;97450.09;;;6.97;100.00
50790;BME280;37287;47.554;7.844;2022-11-15T06:01:50;97453.63;;;7.01;100.00
50790;BME280;37287;47.554;7.844;2022-11-15T06:04:17;97442.84;;;7.01;100.00
50790;BME280;37287;47.554;7.844;2022-11-15T06:06:44;97437.47;;;7.01;100.00
50790;BME280;37287;47.554;7.844;2022-11-15T06:09:11;97443.91;;;6.97;100.00
50790;BME280;37287;47.554;7.844;2022-11-15T06:11:37;97448.13;;;6.94;100.00
50790;BME280;37287;47.554;7.844;2022-11-15T06:14:04;97433.47;;;6.92;100.00
50790;BME280;37287;47.554;7.844;2022-11-15T06:16:37;97442.69;;;6.91;100.00
50790;BME280;37287;47.554;7.844;2022-11-15T06:19:05;97443.44;;;6.91;100.00
50790;BME280;37287;47.554;7.844;2022-11-15T06:21:32;97445.00;;;6.92;100.00
50790;BME280;37287;47.554;7.844;2022-11-15T06:23:59;97448.91;;;6.95;100.00
50790;BME280;37287;47.554;7.844;2022-11-15T06:26:25;97446.69;;;7.00;100.00
50790;BME280;37287;47.554;7.844;2022-11-15T06:28:52;97444.81;;;7.04;100.00
50790;BME280;37287;47.554;7.844;2022-11-15T06:31:27;97445.59;;;7.05;100.00
50790;BME280;37287;47.554;7.844;2022-11-15T06:33:54;97439.84;;;7.06;100.00
50790;BME280;37287;47.554;7.844;2022-11-15T06:36:24;97446.03;;;7.11;100.00
50790;BME280;37287;47.554;7.844;2022-11-15T06:38:51;97431.91;;;7.17;100.00
50790;BME280;37287;47.554;7.844;2022-11-15T06:41:18;97440.81;;;7.21;100.00
50790;BME280;37287;47.554;7.844;2022-11-15T06:43:44;97440.84;;;7.25;100.00
50790;BME280;37287;47.554;7.844;2022-11-15T06:46:11;97442.47;;;7.30;100.00
50790;BME280;37287;47.554;7.844;2022-11-15T06:48:37;97438.63;;;7.31;100.00
50790;BME280;37287;47.554;7.844;2022-11-15T06:51:04;97444.00;;;7.31;100.00
50790;BME280;37287;47.554;7.844;2022-11-15T06:53:37;97439.41;;;7.31;100.00
50790;BME280;37287;47.554;7.844;2022-11-15T06:56:05;97435.56;;;7.32;100.00
50790;BME280;37287;47.554;7.844;2022-11-15T06:58:35;97439.09;;;7.36;100.00
50790;BME280;37287;47.554;7.844;2022-11-15T07:01:06;97449.16;;;7.39;100.00
50790;BME280;37287;47.554;7.844;2022-11-15T07:03:37;97447.63;;;7.42;100.00
50790;BME280;37287;47.554;7.844;2022-11-15T07:06:04;97451.88;;;7.43;100.00
50790;BME280;37287;47.554;7.844;2022-11-15T07:08:36;97447.31;;;7.47;100.00
50790;BME280;37287;47.554;7.844;2022-11-15T07:11:05;97444.25;;;7.49;100.00
50790;BME280;37287;47.554;7.844;2022-11-15T07:13:32;97457.34;;;7.50;100.00
50790;BME280;37287;47.554;7.844;2022-11-15T07:16:08;97465.06;;;7.52;100.00
50790;BME280;37287;47.554;7.844;2022-11-15T07:18:37;97467.75;;;7.52;100.00
50790;BME280;37287;47.554;7.844;2022-11-15T07:21:08;97466.63;;;7.53;100.00
50790;BME280;37287;47.554;7.844;2022-11-15T07:23:38;97467.75;;;7.52;100.00
50790;BME280;37287;47.554;7.844;2022-11-15T07:26:05;97459.69;;;7.52;100.00
50790;BME280;37287;47.554;7.844;2022-11-15T07:28:34;97465.13;;;7.55;100.00
50790;BME280;37287;47.554;7.844;2022-11-15T07:31:03;97460.91;;;7.88;100.00
50790;BME280;37287;47.554;7.844;2022-11-15T07:33:31;97464.38;;;7.89;100.00
50790;BME280;37287;47.554;7.844;2022-11-15T07:36:08;97460.78;;;7.78;100.00
50790;BME280;37287;47.554;7.844;2022-11-15T07:38:35;97457.59;;;7.68;100.00
50790;BME280;37287;47.554;7.844;2022-11-15T07:41:08;97460.50;;;7.56;100.00
50790;BME280;37287;47.554;7.844;2022-11-15T07:43:38;97460.84;;;7.51;100.00
50790;BME280;37287;47.554;7.844;2022-11-15T07:46:08;97453.47;;;7.48;100.00
50790;BME280;37287;47.554;7.844;2022-11-15T07:48:38;97456.53;;;7.46;100.00
50790;BME280;37287;47.554;7.844;2022-11-15T07:51:13;97452.66;;;7.44;100.00
50790;BME280;37287;47.554;7.844;2022-11-15T07:53:43;97462.66;;;7.43;100.00
50790;BME280;37287;47.554;7.844;2022-11-15T07:56:14;97449.56;;;7.42;100.00
50790;BME280;37287;47.554;7.844;2022-11-15T07:58:41;97454.84;;;7.34;100.00
50790;BME280;37287;47.554;7.844;2022-11-15T08:01:09;97459.31;;;7.23;100.00
50790;BME280;37287;47.554;7.844;2022-11-15T08:03:37;97460.03;;;7.20;100.00
50790;BME280;37287;47.554;7.844;2022-11-15T08:06:06;97466.91;;;7.17;100.00
50790;BME280;37287;47.554;7.844;2022-11-15T08:08:32;97468.06;;;7.16;100.00
50790;BME280;37287;47.554;7.844;2022-11-15T08:10:59;97455.38;;;7.17;100.00
50790;BME280;37287;47.554;7.844;2022-11-15T08:13:26;97466.19;;;7.20;100.00
50790;BME280;37287;47.554;7.844;2022-11-15T08:15:58;97471.56;;;7.20;100.00
50790;BME280;37287;47.554;7.844;2022-11-15T08:18:26;97466.16;;;7.17;100.00
50790;BME280;37287;47.554;7.844;2022-11-15T08:20:53;97464.59;;;7.16;100.00
50790;BME280;37287;47.554;7.844;2022-11-15T08:23:19;97466.56;;;7.19;100.00
50790;BME280;37287;47.554;7.844;2022-11-15T08:25:46;97471.94;;;7.19;100.00
50790;BME280;37287;47.554;7.844;2022-11-15T08:28:13;97474.63;;;7.19;100.00
50790;BME280;37287;47.554;7.844;2022-11-15T08:30:41;97468.06;;;7.16;100.00
50790;BME280;37287;47.554;7.844;2022-11-15T08:33:12;97467.69;;;7.18;100.00
50790;BME280;37287;47.554;7.844;2022-11-15T08:35:43;97467.69;;;7.18;100.00
50790;BME280;37287;47.554;7.844;2022-11-15T08:38:20;97468.50;;;7.22;100.00
50790;BME280;37287;47.554;7.844;2022-11-15T08:40:52;97466.28;;;7.28;100.00
50790;BME280;37287;47.554;7.844;2022-11-15T08:43:26;97459.81;;;7.32;100.00
50790;BME280;37287;47.554;7.844;2022-11-15T08:45:57;97469.91;;;7.39;100.00
50790;BME280;37287;47.554;7.844;2022-11-15T08:48:23;97458.03;;;7.44;100.00
50790;BME280;37287;47.554;7.844;2022-11-15T08:50:56;97449.63;;;7.49;100.00
50790;BME280;37287;47.554;7.844;2022-11-15T08:53:22;97448.13;;;7.51;100.00
50790;BME280;37287;47.554;7.844;2022-11-15T08:55:49;97446.63;;;7.54;100.00
50790;BME280;37287;47.554;7.844;2022-11-15T08:58:22;97440.13;;;7.55;100.00
50790;BME280;37287;47.554;7.844;2022-11-15T09:00:49;97428.19;;;7.56;100.00
50790;BME280;37287;47.554;7.844;2022-11-15T09:03:19;97430.50;;;7.57;100.00
50790;BME280;37287;47.554;7.844;2022-11-15T09:05:45;97424.03;;;7.62;100.00
50790;BME280;37287;47.554;7.844;2022-11-15T09:08:12;97431.75;;;7.64;100.00
50790;BME280;37287;47.554;7.844;2022-11-15T09:11:03;97425.56;;;7.63;100.00
50790;BME280;37287;47.554;7.844;2022-11-15T09:13:29;97426.75;;;7.66;100.00
50790;BME280;37287;47.554;7.844;2022-11-15T09:16:00;97429.09;;;7.67;100.00
50790;BME280;37287;47.554;7.844;2022-11-15T09:18:27;97423.31;;;7.69;100.00
50790;BME280;37287;47.554;7.844;2022-11-15T09:20:57;97419.13;;;7.71;100.00
50790;BME280;37287;47.554;7.844;2022-11-15T09:23:25;97421.09;;;7.74;100.00
50790;BME280;37287;47.554;7.844;2022-11-15T09:25:52;97411.13;;;7.79;100.00
50790;BME280;37287;47.554;7.844;2022-11-15T09:28:19;97420.03;;;7.83;100.00
50790;BME280;37287;47.554;7.844;2022-11-15T09:30:46;97418.16;;;7.87;100.00
50790;BME280;37287;47.554;7.844;2022-11-15T09:33:12;97407.78;;;7.89;100.00
50790;BME280;37287;47.554;7.844;2022-11-15T09:35:39;97411.66;;;7.91;100.00
50790;BME280;37287;47.554;7.844;2022-11-15T09:38:07;97403.25;;;7.97;100.00
50790;BME280;37287;47.554;7.844;2022-11-15T09:40:36;97407.50;;;7.98;100.00
50790;BME280;37287;47.554;7.844;2022-11-15T09:48:53;97412.50;;;7.99;100.00
50790;BME280;37287;47.554;7.844;2022-11-15T09:51:34;97410.22;;;8.01;100.00
50790;BME280;37287;47.554;7.844;2022-11-15T09:54:10;97413.31;;;8.03;100.00
50790;BME280;37287;47.554;7.844;2022-11-15T09:57:20;97409.50;;;8.08;100.00
50790;BME280;37287;47.554;7.844;2022-11-15T10:00:02;97421.47;;;8.11;100.00
50790;BME280;37287;47.554;7.844;2022-11-15T10:05:39;97434.28;;;8.21;100.00
50790;BME280;37287;47.554;7.844;2022-11-15T10:08:16;97438.94;;;8.24;100.00
50790;BME280;37287;47.554;7.844;2022-11-15T10:10:50;97438.59;;;8.29;100.00
50790;BME280;37287;47.554;7.844;2022-11-15T10:13:41;97422.81;;;8.31;100.00
50790;BME280;37287;47.554;7.844;2022-11-15T10:24:52;97400.53;;;8.34;100.00
50790;BME280;37287;47.554;7.844;2022-11-15T10:27:25;97394.38;;;8.37;100.00
50790;BME280;37287;47.554;7.844;2022-11-15T10:29:53;97389.75;;;8.38;100.00
50790;BME280;37287;47.554;7.844;2022-11-15T10:32:21;97389.84;;;8.45;100.00
50790;BME280;37287;47.554;7.844;2022-11-15T10:34:49;97385.25;;;8.49;100.00
50790;BME280;37287;47.554;7.844;2022-11-15T10:37:28;97384.13;;;8.54;100.00
50790;BME280;37287;47.554;7.844;2022-11-15T10:40:23;97365.31;;;8.61;100.00
50790;BME280;37287;47.554;7.844;2022-11-15T10:43:14;97353.34;;;8.62;100.00
50790;BME280;37287;47.554;7.844;2022-11-15T10:45:41;97338.38;;;8.68;100.00
50790;BME280;37287;47.554;7.844;2022-11-15T10:50:43;97346.50;;;8.79;100.00
50790;BME280;37287;47.554;7.844;2022-11-15T10:53:21;97356.19;;;8.84;100.00
50790;BME280;37287;47.554;7.844;2022-11-15T10:55:53;97345.03;;;8.89;100.00
50790;BME280;37287;47.554;7.844;2022-11-15T10:58:34;97341.56;;;8.92;100.00
50790;BME280;37287;47.554;7.844;2022-11-15T11:01:19;97331.56;;;8.96;100.00
50790;BME280;37287;47.554;7.844;2022-11-15T11:03:59;97326.97;;;9.00;100.00
50790;BME280;37287;47.554;7.844;2022-11-15T11:06:27;97313.09;;;9.02;100.00
50790;BME280;37287;47.554;7.844;2022-11-15T11:09:05;97310.41;;;9.05;100.00
50790;BME280;37287;47.554;7.844;2022-11-15T11:11:46;97311.22;;;9.13;100.00
50790;BME280;37287;47.554;7.844;2022-11-15T11:14:21;97306.97;;;9.16;100.00
50790;BME280;37287;47.554;7.844;2022-11-15T11:17:09;97301.59;;;9.23;100.00
50790;BME280;37287;47.554;7.844;2022-11-15T11:19:52;97300.84;;;9.26;100.00
50790;BME280;37287;47.554;7.844;2022-11-15T11:22:53;97292.00;;;9.29;100.00
50790;BME280;37287;47.554;7.844;2022-11-15T11:25:40;97286.97;;;9.31;100.00
50790;BME280;37287;47.554;7.844;2022-11-15T11:45:05;97264.25;;;9.61;100.00
50790;BME280;37287;47.554;7.844;2022-11-15T11:47:40;97258.50;;;9.66;100.00
50790;BME280;37287;47.554;7.844;2022-11-15T11:50:18;97255.44;;;9.78;100.00
50790;BME280;37287;47.554;7.844;2022-11-15T11:53:28;97251.94;;;9.89;100.00
50790;BME280;37287;47.554;7.844;2022-11-15T11:56:01;97248.88;;;9.94;100.00
50790;BME280;37287;47.554;7.844;2022-11-15T11:58:35;97239.97;;;10.01;100.00
50790;BME280;37287;47.554;7.844;2022-11-15T12:01:36;97243.06;;;9.95;100.00
50790;BME280;37287;47.554;7.844;2022-11-15T12:04:14;97234.19;;;9.91;100.00
50790;BME280;37287;47.554;7.844;2022-11-15T12:06:53;97220.25;;;9.89;100.00
50790;BME280;37287;47.554;7.844;2022-11-15T12:09:38;97218.34;;;9.90;100.00
50790;BME280;37287;47.554;7.844;2022-11-15T12:12:30;97231.47;;;9.88;100.00
50790;BME280;37287;47.554;7.844;2022-11-15T12:17:36;97204.03;;;9.82;100.00
50790;BME280;37287;47.554;7.844;2022-11-15T12:20:15;97191.31;;;9.72;100.00
50790;BME280;37287;47.554;7.844;2022-11-15T12:22:47;97194.00;;;9.72;100.00
50790;BME280;37287;47.554;7.844;2022-11-15T12:25:22;97185.88;;;9.68;100.00
50790;BME280;37287;47.554;7.844;2022-11-15T12:27:56;97163.91;;;9.66;100.00
50790;BME280;37287;47.554;7.844;2022-11-15T12:30:38;97157.34;;;9.67;100.00
50790;BME280;37287;47.554;7.844;2022-11-15T12:36:04;97166.19;;;9.64;100.00
50790;BME280;37287;47.554;7.844;2022-11-15T12:41:18;97165.06;;;9.61;100.00
50790;BME280;37287;47.554;7.844;2022-11-15T12:43:47;97148.06;;;9.68;100.00
50790;BME280;37287;47.554;7.844;2022-11-15T13:00:36;97156.53;;;9.34;100.00
50790;BME280;37287;47.554;7.844;2022-11-15T13:03:17;97151.16;;;9.31;100.00
50790;BME280;37287;47.554;7.844;2022-11-15T13:08:45;97149.59;;;9.22;100.00
50790;BME280;37287;47.554;7.844;2022-11-15T13:11:42;97144.94;;;9.23;100.00
50790;BME280;37287;47.554;7.844;2022-11-15T13:14:40;97156.53;;;9.27;100.00
50790;BME280;37287;47.554;7.844;2022-11-15T13:28:30;97117.16;;;9.26;100.00
50790;BME280;37287;47.554;7.844;2022-11-15T13:31:13;97113.72;;;9.22;100.00
50790;BME280;37287;47.554;7.844;2022-11-15T13:33:43;97105.22;;;9.20;100.00
50790;BME280;37287;47.554;7.844;2022-11-15T13:36:18;97102.88;;;9.15;100.00
50790;BME280;37287;47.554;7.844;2022-11-15T13:38:55;97090.16;;;9.11;100.00
50790;BME280;37287;47.554;7.844;2022-11-15T13:41:30;97093.63;;;9.08;100.00
50790;BME280;37287;47.554;7.844;2022-11-15T13:44:00;97063.56;;;9.06;100.00
50790;BME280;37287;47.554;7.844;2022-11-15T13:46:28;97053.13;;;9.05;100.00
50790;BME280;37287;47.554;7.844;2022-11-15T13:49:02;97056.19;;;9.03;100.00
50790;BME280;37287;47.554;7.844;2022-11-15T13:51:46;97043.88;;;9.02;100.00
50790;BME280;37287;47.554;7.844;2022-11-15T13:54:35;97041.94;;;9.03;100.00
50790;BME280;37287;47.554;7.844;2022-11-15T13:57:10;97056.22;;;9.07;100.00
50790;BME280;37287;47.554;7.844;2022-11-15T13:59:55;97054.28;;;9.07;100.00
50790;BME280;37287;47.554;7.844;2022-11-15T14:02:32;97054.69;;;9.09;100.00
50790;BME280;37287;47.554;7.844;2022-11-15T14:05:15;97066.66;;;9.12;100.00
50790;BME280;37287;47.554;7.844;2022-11-15T14:10:45;97063.94;;;9.19;100.00
50790;BME280;37287;47.554;7.844;2022-11-15T14:13:28;97053.91;;;9.20;100.00
50790;BME280;37287;47.554;7.844;2022-11-15T14:16:12;97047.34;;;9.17;100.00
50790;BME280;37287;47.554;7.844;2022-11-15T14:18:48;97045.81;;;9.16;100.00
50790;BME280;37287;47.554;7.844;2022-11-15T14:21:15;97039.25;;;9.14;100.00
50790;BME280;37287;47.554;7.844;2022-11-15T14:23:44;97046.94;;;9.11;100.00
50790;BME280;37287;47.554;7.844;2022-11-15T14:26:29;97043.88;;;9.09;100.00
50790;BME280;37287;47.554;7.844;2022-11-15T14:28:55;97035.38;;;9.07;100.00
50790;BME280;37287;47.554;7.844;2022-11-15T14:31:24;97023.06;;;9.06;100.00
50790;BME280;37287;47.554;7.844;2022-11-15T14:33:51;97018.78;;;9.09;100.00
50790;BME280;37287;47.554;7.844;2022-11-15T14:36:19;97018.78;;;9.09;100.00
50790;BME280;37287;47.554;7.844;2022-11-15T14:38:47;97017.66;;;9.06;100.00
50790;BME280;37287;47.554;7.844;2022-11-15T14:41:19;97014.56;;;9.04;100.00
50790;BME280;37287;47.554;7.844;2022-11-15T14:43:46;97007.59;;;9.03;100.00
50790;BME280;37287;47.554;7.844;2022-11-15T14:46:13;96992.19;;;9.04;100.00
50790;BME280;37287;47.554;7.844;2022-11-15T14:48:39;96997.97;;;9.02;100.00
50790;BME280;37287;47.554;7.844;2022-11-15T14:51:17;97003.00;;;9.04;100.00
50790;BME280;37287;47.554;7.844;2022-11-15T14:53:47;96996.81;;;9.03;100.00
50790;BME280;37287;47.554;7.844;2022-11-15T14:56:15;97003.00;;;9.04;100.00
50790;BME280;37287;47.554;7.844;2022-11-15T14:58:42;96992.59;;;9.02;100.00
50790;BME280;37287;47.554;7.844;2022-11-15T15:03:45;96972.13;;;9.01;100.00